createdAt,value
2024-01-11T00:00:11.469Z,101960.06
2024-01-11T00:01:14.659Z,101959.97
2024-01-11T00:02:19.108Z,101955.59
2024-01-11T00:03:22.118Z,101955.50
2024-01-11T00:04:25.212Z,101951.31
2024-01-11T00:05:28.285Z,101957.28
2024-01-11T00:06:31.616Z,101952.16
2024-01-11T00:07:34.315Z,101954.72
2024-01-11T00:08:37.019Z,101956.31
2024-01-11T00:09:43.798Z,101951.22
2024-01-11T00:10:46.728Z,101956.38
2024-01-11T00:11:50.234Z,101960.56
2024-01-11T00:12:53.198Z,101948.66
2024-01-11T00:13:55.913Z,101953.81
2024-01-11T00:15:00.371Z,101950.38
2024-01-11T00:16:03.774Z,101934.72
2024-01-11T00:17:07.097Z,101923.47
2024-01-11T00:18:09.887Z,101935.69
2024-01-11T00:19:12.641Z,101951.53
2024-01-11T00:20:15.794Z,101948.87
2024-01-11T00:21:18.977Z,101949.53
2024-01-11T00:22:22.015Z,101954.53
2024-01-11T00:23:24.983Z,101949.25
2024-01-11T00:24:27.971Z,101950.84
2024-01-11T00:25:30.812Z,101942.37
2024-01-11T00:26:33.719Z,101943.13
2024-01-11T00:27:37.059Z,101944.12
2024-01-11T00:28:40.341Z,101944.84
2024-01-11T00:29:43.330Z,101942.97
2024-01-11T00:30:46.401Z,101906.44
2024-01-11T00:31:49.346Z,101942.06
2024-01-11T00:32:52.820Z,101937.81
2024-01-11T00:33:55.878Z,101939.72
2024-01-11T00:34:59.137Z,101926.72
2024-01-11T00:36:03.209Z,101938.13
2024-01-11T00:37:06.183Z,101930.25
2024-01-11T00:38:09.207Z,101853.72
2024-01-11T00:39:13.032Z,101948.37
2024-01-11T00:40:15.869Z,101942.31
2024-01-11T00:41:18.997Z,101943.03
2024-01-11T00:42:21.721Z,101948.94
2024-01-11T00:43:24.900Z,101943.88
2024-01-11T00:44:27.638Z,101936.16
2024-01-11T00:45:30.642Z,101938.72
2024-01-11T00:46:33.552Z,101938.59
2024-01-11T00:47:36.550Z,101946.16
2024-01-11T00:48:39.914Z,101943.47
2024-01-11T00:49:44.102Z,101942.59
2024-01-11T00:50:47.008Z,101938.25
2024-01-11T00:51:49.919Z,101942.59
2024-01-11T00:52:52.675Z,101936.66
2024-01-11T00:53:55.947Z,101934.94
2024-01-11T00:54:58.742Z,101938.47
2024-01-11T00:56:02.117Z,101938.56
2024-01-11T00:57:05.072Z,101937.75
2024-01-11T00:58:07.944Z,101930.78
2024-01-11T00:59:11.091Z,101935.19
2024-01-11T01:00:17.372Z,101850.09
2024-01-11T01:01:20.235Z,101931.03
2024-01-11T01:02:23.363Z,101929.53
2024-01-11T01:03:26.616Z,101928.75
2024-01-11T01:04:29.884Z,101932.25
2024-01-11T01:05:32.904Z,101924.53
2024-01-11T01:06:35.706Z,101932.16
2024-01-11T01:07:38.329Z,101924.38
2024-01-11T01:08:41.145Z,101931.22
2024-01-11T01:09:44.467Z,101926.13
2024-01-11T01:10:47.384Z,101919.31
2024-01-11T01:11:50.506Z,101912.47
2024-01-11T01:12:53.497Z,101913.25
2024-01-11T01:13:56.133Z,101903.88
2024-01-11T01:14:59.112Z,101909.84
2024-01-11T01:16:02.093Z,101911.59
2024-01-11T01:17:05.043Z,101903.97
2024-01-11T01:18:08.222Z,101837.75
2024-01-11T01:19:12.292Z,101900.63
2024-01-11T01:20:15.992Z,101894.31
2024-01-11T01:21:18.638Z,101898.88
2024-01-11T01:22:21.542Z,101898.00
2024-01-11T01:23:24.300Z,101893.22
2024-01-11T01:24:27.254Z,101895.81
2024-01-11T01:25:30.512Z,101886.50
2024-01-11T01:26:33.160Z,101894.25
2024-01-11T01:27:35.947Z,101894.16
2024-01-11T01:28:39.129Z,101897.72
2024-01-11T01:29:42.102Z,101892.56
2024-01-11T01:30:45.441Z,101879.59
2024-01-11T01:31:48.388Z,101888.31
2024-01-11T01:32:51.152Z,101884.84
2024-01-11T01:33:54.055Z,101889.75
2024-01-11T01:34:56.784Z,101885.41
2024-01-11T01:35:59.756Z,101799.84
2024-01-11T01:37:02.655Z,101889.94
2024-01-11T01:38:05.619Z,101890.78
2024-01-11T01:39:08.809Z,101888.13
2024-01-11T01:40:13.060Z,101894.81
2024-01-11T01:41:16.143Z,101879.34
2024-01-11T01:42:19.176Z,101881.28
2024-01-11T01:43:21.844Z,101828.28
2024-01-11T01:44:24.761Z,101882.19
2024-01-11T01:45:28.449Z,101877.84
2024-01-11T01:46:31.871Z,101886.41
2024-01-11T01:47:34.940Z,101876.00
2024-01-11T01:48:38.791Z,101874.19
2024-01-11T01:49:42.734Z,101871.84
2024-01-11T01:50:51.510Z,101879.53
2024-01-11T01:51:55.105Z,101872.78
2024-01-11T01:52:58.847Z,101879.44
2024-01-11T01:54:03.152Z,101871.69
2024-01-11T01:55:07.965Z,101876.75
2024-01-11T01:56:11.688Z,101871.53
2024-01-11T01:57:16.698Z,101862.09
2024-01-11T01:58:20.547Z,101868.72
2024-01-11T01:59:26.867Z,101839.38
2024-01-11T02:00:29.901Z,101863.81
2024-01-11T02:01:34.182Z,101867.19
2024-01-11T02:02:37.555Z,101869.69
2024-01-11T02:03:41.517Z,101831.50
2024-01-11T02:04:44.189Z,101863.59
2024-01-11T02:05:47.962Z,101862.09
2024-01-11T02:06:53.611Z,101856.91
2024-01-11T02:07:58.755Z,101850.00
2024-01-11T02:09:05.604Z,101851.00
2024-01-11T02:10:08.925Z,101830.28
2024-01-11T02:11:12.532Z,101843.47
2024-01-11T02:12:16.584Z,101832.28
2024-01-11T02:13:20.945Z,101842.72
2024-01-11T02:14:24.366Z,101835.03
2024-01-11T02:15:27.278Z,101839.47
2024-01-11T02:16:30.149Z,101827.41
2024-01-11T02:17:33.517Z,101834.19
2024-01-11T02:18:36.454Z,101829.91
2024-01-11T02:19:39.691Z,101832.63
2024-01-11T02:20:42.706Z,101828.25
2024-01-11T02:21:50.260Z,101824.81
2024-01-11T02:22:59.791Z,101826.63
2024-01-11T02:24:06.675Z,101823.87
2024-01-11T02:25:09.647Z,101822.25
2024-01-11T02:26:14.583Z,101823.69
2024-01-11T02:27:17.545Z,101807.38
2024-01-11T02:28:20.693Z,101817.84
2024-01-11T02:29:23.599Z,101812.78
2024-01-11T02:30:26.666Z,101809.41
2024-01-11T02:31:29.935Z,101810.38
2024-01-11T02:32:32.897Z,101804.53
2024-01-11T02:33:36.084Z,101801.28
2024-01-11T02:34:39.296Z,101798.47
2024-01-11T02:35:47.613Z,101806.19
2024-01-11T02:36:51.204Z,101799.37
2024-01-11T02:37:54.351Z,101786.13
2024-01-11T02:38:57.482Z,101793.41
2024-01-11T02:40:00.361Z,101791.69
2024-01-11T02:41:04.706Z,101795.69
2024-01-11T02:42:07.686Z,101786.22
2024-01-11T02:43:13.928Z,101783.59
2024-01-11T02:44:16.911Z,101787.09
2024-01-11T02:45:20.159Z,101781.94
2024-01-11T02:46:23.330Z,101783.50
2024-01-11T02:47:26.347Z,101780.25
2024-01-11T02:48:32.490Z,101779.28
2024-01-11T02:49:36.083Z,101764.63
2024-01-11T02:50:40.069Z,101777.78
2024-01-11T02:51:43.434Z,101776.00
2024-01-11T02:52:46.352Z,101768.19
2024-01-11T02:53:49.144Z,101723.94
2024-01-11T02:54:51.797Z,101766.34
2024-01-11T02:55:54.715Z,101769.84
2024-01-11T02:56:58.514Z,101762.00
2024-01-11T02:58:01.377Z,101766.34
2024-01-11T02:59:04.452Z,101778.28
2024-01-11T03:00:07.856Z,101741.81
2024-01-11T03:01:10.690Z,101766.25
2024-01-11T03:02:14.116Z,101778.09
2024-01-11T03:03:17.143Z,101763.13
2024-01-11T03:04:19.805Z,101778.81
2024-01-11T03:05:22.754Z,101773.69
2024-01-11T03:06:25.853Z,101775.41
2024-01-11T03:07:29.754Z,101778.87
2024-01-11T03:08:32.772Z,101766.81
2024-01-11T03:09:35.927Z,101769.31
2024-01-11T03:10:39.851Z,101769.31
2024-01-11T03:11:42.595Z,101644.84
2024-01-11T03:12:45.888Z,101766.78
2024-01-11T03:13:48.705Z,101766.09
2024-01-11T03:14:51.339Z,101775.31
2024-01-11T03:15:54.352Z,101772.78
2024-01-11T03:16:57.205Z,101774.84
2024-01-11T03:18:00.446Z,101704.63
2024-01-11T03:19:04.226Z,101778.16
2024-01-11T03:20:08.599Z,101777.50
2024-01-11T03:21:11.530Z,101784.22
2024-01-11T03:22:15.168Z,101764.22
2024-01-11T03:23:18.177Z,101763.22
2024-01-11T03:24:21.190Z,101778.72
2024-01-11T03:25:24.105Z,101788.09
2024-01-11T03:26:27.032Z,101786.37
2024-01-11T03:27:29.927Z,101792.53
2024-01-11T03:28:33.203Z,101801.16
2024-01-11T03:29:35.968Z,101796.16
2024-01-11T03:30:39.038Z,101802.84
2024-01-11T03:31:43.651Z,101795.06
2024-01-11T03:32:46.443Z,101800.97
2024-01-11T03:33:49.633Z,101796.69
2024-01-11T03:34:52.682Z,101796.78
2024-01-11T03:35:55.609Z,101798.59
2024-01-11T03:36:58.627Z,101796.97
2024-01-11T03:38:01.518Z,101795.38
2024-01-11T03:39:04.543Z,101790.38
2024-01-11T03:40:09.870Z,101790.38
2024-01-11T03:41:12.730Z,101788.56
2024-01-11T03:42:15.646Z,101780.84
2024-01-11T03:43:19.319Z,101774.62
2024-01-11T03:44:23.817Z,101788.50
2024-01-11T03:45:26.795Z,101783.41
2024-01-11T03:46:29.473Z,101737.28
2024-01-11T03:47:32.108Z,101783.41
2024-01-11T03:48:37.366Z,101788.56
2024-01-11T03:49:40.380Z,101789.50
2024-01-11T03:50:43.204Z,101790.50
2024-01-11T03:51:45.900Z,101792.06
2024-01-11T03:52:48.617Z,101790.84
2024-01-11T03:53:51.590Z,101769.31
2024-01-11T03:54:54.691Z,101783.16
2024-01-11T03:55:57.341Z,101772.97
2024-01-11T03:57:00.182Z,101773.97
2024-01-11T03:58:03.074Z,101720.31
2024-01-11T03:59:07.174Z,101776.56
2024-01-11T04:00:11.789Z,101780.75
2024-01-11T04:01:15.317Z,101693.28
2024-01-11T04:02:18.430Z,101777.53
2024-01-11T04:03:21.140Z,101775.81
2024-01-11T04:04:24.057Z,101781.88
2024-01-11T04:05:26.941Z,101778.38
2024-01-11T04:06:30.308Z,101771.63
2024-01-11T04:07:33.281Z,101769.94
2024-01-11T04:08:36.638Z,101770.78
2024-01-11T04:09:39.851Z,101778.59
2024-01-11T04:10:42.468Z,101771.72
2024-01-11T04:11:45.802Z,101775.91
2024-01-11T04:12:49.352Z,101770.59
2024-01-11T04:13:52.061Z,101771.56
2024-01-11T04:14:54.741Z,101773.34
2024-01-11T04:15:58.346Z,101769.97
2024-01-11T04:17:01.548Z,101780.03
2024-01-11T04:18:04.957Z,101776.34
2024-01-11T04:19:07.873Z,101778.91
2024-01-11T04:20:11.302Z,101772.66
2024-01-11T04:21:24.584Z,101776.66
2024-01-11T04:22:29.705Z,101769.81
2024-01-11T04:23:32.426Z,101769.69
2024-01-11T04:24:35.135Z,101766.28
2024-01-11T04:25:38.039Z,101759.50
2024-01-11T04:26:40.833Z,101757.91
2024-01-11T04:27:43.777Z,101762.91
2024-01-11T04:28:47.678Z,101758.84
2024-01-11T04:29:51.087Z,101765.47
2024-01-11T04:30:53.930Z,101768.91
2024-01-11T04:31:56.825Z,101767.00
2024-01-11T04:33:00.466Z,101765.25
2024-01-11T04:34:03.718Z,101771.91
2024-01-11T04:35:07.025Z,101765.75
2024-01-11T04:36:10.876Z,101767.47
2024-01-11T04:37:13.872Z,101765.09
2024-01-11T04:38:17.119Z,101735.37
2024-01-11T04:39:21.375Z,101760.44
2024-01-11T04:40:26.224Z,101763.25
2024-01-11T04:41:29.405Z,101763.41
2024-01-11T04:42:32.315Z,101757.66
2024-01-11T04:43:40.474Z,101756.91
2024-01-11T04:44:43.446Z,101755.31
2024-01-11T04:45:46.384Z,101711.25
2024-01-11T04:46:49.345Z,101722.63
2024-01-11T04:47:53.132Z,101745.25
2024-01-11T04:48:56.683Z,101745.22
2024-01-11T04:50:00.304Z,101742.66
2024-01-11T04:51:03.438Z,101744.47
2024-01-11T04:52:07.185Z,101742.91
2024-01-11T04:53:10.196Z,101742.09
2024-01-11T04:54:13.358Z,101735.03
2024-01-11T04:55:16.265Z,101703.84
2024-01-11T04:56:19.299Z,101740.22
2024-01-11T04:57:22.010Z,101747.09
2024-01-11T04:58:24.975Z,101741.91
2024-01-11T04:59:28.342Z,101741.06
2024-01-11T05:00:31.360Z,101750.31
2024-01-11T05:01:34.290Z,101748.59
2024-01-11T05:02:37.078Z,101753.91
2024-01-11T05:03:40.158Z,101749.56
2024-01-11T05:04:43.422Z,101670.56
2024-01-11T05:05:46.329Z,101683.28
2024-01-11T05:06:49.351Z,101742.47
2024-01-11T05:07:52.388Z,101743.38
2024-01-11T05:08:55.417Z,101743.28
2024-01-11T05:09:58.667Z,101747.56
2024-01-11T05:11:01.669Z,101745.75
2024-01-11T05:12:05.921Z,101744.84
2024-01-11T05:13:08.820Z,101747.38
2024-01-11T05:14:11.728Z,101751.84
2024-01-11T05:15:14.913Z,101756.94
2024-01-11T05:16:25.023Z,101756.16
2024-01-11T05:17:28.424Z,101754.25
2024-01-11T05:18:34.708Z,101751.91
2024-01-11T05:19:38.211Z,101752.88
2024-01-11T05:20:41.818Z,101750.31
2024-01-11T05:21:44.807Z,101742.69
2024-01-11T05:22:47.596Z,101745.50
2024-01-11T05:23:50.504Z,101740.34
2024-01-11T05:24:53.363Z,101741.25
2024-01-11T05:25:56.584Z,101741.38
2024-01-11T05:27:00.404Z,101742.22
2024-01-11T05:28:04.893Z,101744.75
2024-01-11T05:29:07.703Z,101748.06
2024-01-11T05:30:11.184Z,101738.69
2024-01-11T05:31:16.546Z,101742.22
2024-01-11T05:32:19.984Z,101746.38
2024-01-11T05:33:22.715Z,101736.06
2024-01-11T05:34:25.707Z,101721.41
2024-01-11T05:35:28.946Z,101731.06
2024-01-11T05:36:32.262Z,101692.59
2024-01-11T05:37:35.253Z,101741.94
2024-01-11T05:38:40.320Z,101736.78
2024-01-11T05:39:46.161Z,101654.34
2024-01-11T05:40:48.812Z,101717.75
2024-01-11T05:41:52.040Z,101731.50
2024-01-11T05:42:54.919Z,101667.13
2024-01-11T05:43:57.657Z,101723.66
2024-01-11T05:45:00.962Z,101733.75
2024-01-11T05:46:04.585Z,101733.75
2024-01-11T05:47:07.696Z,101736.31
2024-01-11T05:48:12.308Z,101735.44
2024-01-11T05:49:15.314Z,101737.47
2024-01-11T05:50:18.448Z,101735.81
2024-01-11T05:51:21.189Z,101738.28
2024-01-11T05:52:24.077Z,101733.97
2024-01-11T05:53:28.753Z,101730.38
2024-01-11T05:54:31.546Z,101738.16
2024-01-11T05:55:34.539Z,101732.06
2024-01-11T05:56:37.554Z,101737.91
2024-01-11T05:57:40.715Z,101738.63
2024-01-11T05:58:43.468Z,101741.28
2024-01-11T05:59:46.482Z,101739.59
2024-01-11T06:00:49.347Z,101739.63
2024-01-11T06:01:52.276Z,101741.38
2024-01-11T06:02:54.925Z,101743.09
2024-01-11T06:03:57.738Z,101751.59
2024-01-11T06:05:00.713Z,101748.37
2024-01-11T06:06:04.850Z,101750.03
2024-01-11T06:07:08.211Z,101698.78
2024-01-11T06:08:11.188Z,101726.50
2024-01-11T06:09:14.105Z,101751.53
2024-01-11T06:10:17.023Z,101745.66
2024-01-11T06:11:19.761Z,101740.47
2024-01-11T06:12:22.956Z,101743.03
2024-01-11T06:13:25.957Z,101742.19
2024-01-11T06:14:28.677Z,101742.72
2024-01-11T06:15:33.273Z,101750.22
2024-01-11T06:16:37.978Z,101749.19
2024-01-11T06:17:41.694Z,101738.03
2024-01-11T06:18:44.910Z,101738.87
2024-01-11T06:19:47.846Z,101718.44
2024-01-11T06:20:50.530Z,101734.66
2024-01-11T06:21:53.407Z,101668.94
2024-01-11T06:22:56.700Z,101730.78
2024-01-11T06:23:59.688Z,101736.00
2024-01-11T06:25:02.565Z,101734.47
2024-01-11T06:26:05.770Z,101739.78
2024-01-11T06:27:11.670Z,101739.81
2024-01-11T06:28:17.845Z,101737.34
2024-01-11T06:29:20.582Z,101714.06
2024-01-11T06:30:26.630Z,101730.91
2024-01-11T06:31:30.940Z,101726.81
2024-01-11T06:32:33.657Z,101722.63
2024-01-11T06:33:38.501Z,101711.84
2024-01-11T06:34:46.872Z,101664.81
2024-01-11T06:35:49.878Z,101713.47
2024-01-11T06:36:53.667Z,101703.12
2024-01-11T06:37:57.017Z,101710.72
2024-01-11T06:39:00.189Z,101711.13
2024-01-11T06:40:04.836Z,101715.75
2024-01-11T06:41:08.098Z,101721.66
2024-01-11T06:42:11.115Z,101719.16
2024-01-11T06:43:14.129Z,101716.66
2024-01-11T06:44:17.488Z,101725.28
2024-01-11T06:45:20.290Z,101721.09
2024-01-11T06:46:23.380Z,101716.00
2024-01-11T06:47:26.910Z,101710.88
2024-01-11T06:48:29.799Z,101720.41
2024-01-11T06:49:33.176Z,101717.06
2024-01-11T06:50:36.218Z,101706.06
2024-01-11T06:51:40.323Z,101703.19
2024-01-11T06:52:44.120Z,101698.37
2024-01-11T06:53:47.026Z,101700.34
2024-01-11T06:54:50.122Z,101633.50
2024-01-11T06:55:53.963Z,101691.59
2024-01-11T06:56:56.847Z,101689.75
2024-01-11T06:58:00.307Z,101685.72
2024-01-11T06:59:03.324Z,101696.31
2024-01-11T07:00:08.909Z,101692.06
2024-01-11T07:01:12.221Z,101698.97
2024-01-11T07:02:15.375Z,101694.59
2024-01-11T07:03:19.302Z,101691.59
2024-01-11T07:04:22.133Z,101680.06
2024-01-11T07:05:25.315Z,101692.31
2024-01-11T07:06:28.865Z,101683.12
2024-01-11T07:07:31.868Z,101691.50
2024-01-11T07:08:34.718Z,101685.56
2024-01-11T07:09:37.657Z,101688.47
2024-01-11T07:10:41.598Z,101672.91
2024-01-11T07:11:45.525Z,101689.38
2024-01-11T07:12:49.212Z,101696.28
2024-01-11T07:13:52.114Z,101692.28
2024-01-11T07:14:54.969Z,101695.91
2024-01-11T07:15:59.048Z,101697.66
2024-01-11T07:17:01.727Z,101692.75
2024-01-11T07:18:04.863Z,101691.19
2024-01-11T07:19:07.990Z,101701.47
2024-01-11T07:20:11.613Z,101696.44
2024-01-11T07:21:21.375Z,101692.25
2024-01-11T07:22:24.007Z,101694.81
2024-01-11T07:23:27.634Z,101697.53
2024-01-11T07:24:38.407Z,101682.38
2024-01-11T07:25:42.266Z,101689.97
2024-01-11T07:26:45.802Z,101688.00
2024-01-11T07:27:48.510Z,101681.09
2024-01-11T07:28:51.738Z,101673.87
2024-01-11T07:29:54.468Z,101683.00
2024-01-11T07:30:57.383Z,101673.00
2024-01-11T07:32:01.303Z,101672.34
2024-01-11T07:33:05.891Z,101677.69
2024-01-11T07:34:09.049Z,101678.78
2024-01-11T07:35:16.494Z,101674.03
2024-01-11T07:36:21.726Z,101674.03
2024-01-11T07:37:26.865Z,101676.09
2024-01-11T07:38:29.519Z,101670.19
2024-01-11T07:39:32.485Z,101660.50
2024-01-11T07:40:36.759Z,101672.34
2024-01-11T07:41:40.150Z,101677.00
2024-01-11T07:42:44.037Z,101676.81
2024-01-11T07:43:53.591Z,101674.03
2024-01-11T07:44:57.734Z,101667.31
2024-01-11T07:46:00.627Z,101668.34
2024-01-11T07:47:03.426Z,101672.84
2024-01-11T07:48:06.983Z,101667.66
2024-01-11T07:49:09.952Z,101669.78
2024-01-11T07:50:13.640Z,101664.31
2024-01-11T07:51:16.736Z,101656.91
2024-01-11T07:52:21.467Z,101656.13
2024-01-11T07:53:24.866Z,101663.53
2024-01-11T07:54:27.869Z,101660.34
2024-01-11T07:55:30.735Z,101662.19
2024-01-11T07:56:33.910Z,101659.09
2024-01-11T07:57:37.047Z,101642.34
2024-01-11T07:58:43.620Z,101664.50
2024-01-11T07:59:47.278Z,101661.81
2024-01-11T08:00:50.359Z,101667.19
2024-01-11T08:01:54.877Z,101667.44
2024-01-11T08:02:58.144Z,101671.47
2024-01-11T08:04:03.963Z,101664.91
2024-01-11T08:05:07.364Z,101655.69
2024-01-11T08:06:10.707Z,101659.53
2024-01-11T08:07:13.780Z,101659.97
2024-01-11T08:08:16.332Z,101661.69
2024-01-11T08:09:19.359Z,101657.84
2024-01-11T08:10:22.015Z,101660.16
2024-01-11T08:11:24.715Z,101658.22
2024-01-11T08:12:27.863Z,101650.78
2024-01-11T08:13:32.711Z,101650.50
2024-01-11T08:14:35.628Z,101643.94
2024-01-11T08:15:39.119Z,101640.81
2024-01-11T08:16:41.957Z,101604.69
2024-01-11T08:17:49.149Z,101651.06
2024-01-11T08:18:52.387Z,101655.13
2024-01-11T08:19:57.275Z,101648.94
2024-01-11T08:21:00.319Z,101647.09
2024-01-11T08:22:03.549Z,101642.28
2024-01-11T08:23:07.916Z,101615.00
2024-01-11T08:24:10.749Z,101641.50
2024-01-11T08:25:14.311Z,101642.09
2024-01-11T08:26:17.482Z,101634.66
2024-01-11T08:27:20.616Z,101639.44
2024-01-11T08:28:23.639Z,101642.12
2024-01-11T08:29:26.585Z,101632.81
2024-01-11T08:30:29.841Z,101629.94
2024-01-11T08:31:34.412Z,101628.62
2024-01-11T08:32:40.907Z,101631.94
2024-01-11T08:33:44.389Z,101626.44
2024-01-11T08:34:47.580Z,101631.56
2024-01-11T08:35:50.266Z,101632.88
2024-01-11T08:36:53.214Z,101636.63
2024-01-11T08:37:56.153Z,101629.87
2024-01-11T08:38:59.038Z,101635.69
2024-01-11T08:40:01.621Z,101625.47
2024-01-11T08:41:04.836Z,101635.09
2024-01-11T08:42:07.718Z,101637.34
2024-01-11T08:43:11.670Z,101636.56
2024-01-11T08:44:14.960Z,101638.19
2024-01-11T08:45:19.321Z,101634.91
2024-01-11T08:46:26.872Z,101635.72
2024-01-11T08:47:29.481Z,101638.09
2024-01-11T08:48:32.477Z,101637.06
2024-01-11T08:49:39.647Z,101639.38
2024-01-11T08:50:42.552Z,101637.13
2024-01-11T08:51:45.386Z,101626.00
2024-01-11T08:52:48.133Z,101623.41
2024-01-11T08:53:51.119Z,101619.13
2024-01-11T08:54:54.402Z,101617.41
2024-01-11T08:55:57.011Z,101604.88
2024-01-11T08:57:00.282Z,101610.09
2024-01-11T08:58:03.199Z,101611.09
2024-01-11T08:59:06.082Z,101611.88
2024-01-11T09:00:09.551Z,101608.91
2024-01-11T09:01:12.563Z,101615.94
2024-01-11T09:02:18.997Z,101617.91
2024-01-11T09:03:23.989Z,101605.16
2024-01-11T09:04:26.835Z,101626.63
2024-01-11T09:05:30.238Z,101616.22
2024-01-11T09:06:34.885Z,101618.06
2024-01-11T09:07:37.609Z,101616.06
2024-01-11T09:08:42.389Z,101621.72
2024-01-11T09:09:51.306Z,101620.91
2024-01-11T09:11:00.674Z,101621.38
2024-01-11T09:12:03.959Z,101628.38
2024-01-11T09:13:06.611Z,101630.97
2024-01-11T09:14:12.419Z,101626.78
2024-01-11T09:15:15.896Z,101624.94
2024-01-11T09:16:19.093Z,101618.91
2024-01-11T09:17:22.928Z,101604.62
2024-01-11T09:18:26.207Z,101581.44
2024-01-11T09:19:29.207Z,101607.50
2024-01-11T09:20:32.139Z,101606.41
2024-01-11T09:21:35.076Z,101595.72
2024-01-11T09:22:37.683Z,101592.00
2024-01-11T09:23:40.640Z,101591.84
2024-01-11T09:24:43.556Z,101592.28
2024-01-11T09:25:46.468Z,101577.16
2024-01-11T09:26:51.219Z,101580.59
2024-01-11T09:27:54.157Z,101574.88
2024-01-11T09:28:57.038Z,101565.66
2024-01-11T09:29:59.674Z,101563.09
2024-01-11T09:31:03.265Z,101554.88
2024-01-11T09:32:06.987Z,101558.81
2024-01-11T09:33:09.852Z,101556.50
2024-01-11T09:34:13.778Z,101563.47
2024-01-11T09:35:16.990Z,101562.22
2024-01-11T09:36:20.581Z,101560.34
2024-01-11T09:37:23.876Z,101555.13
2024-01-11T09:38:26.832Z,101550.78
2024-01-11T09:39:30.094Z,101545.00
2024-01-11T09:40:32.782Z,101543.75
2024-01-11T09:41:39.215Z,101542.91
2024-01-11T09:42:43.275Z,101537.88
2024-01-11T09:43:50.022Z,101549.59
2024-01-11T09:44:52.996Z,101548.66
2024-01-11T09:45:57.474Z,101547.56
2024-01-11T09:47:03.149Z,101549.28
2024-01-11T09:48:09.465Z,101533.62
2024-01-11T09:49:12.826Z,101531.69
2024-01-11T09:50:19.267Z,101531.97
2024-01-11T09:51:23.137Z,101529.97
2024-01-11T09:52:27.399Z,101530.38
2024-01-11T09:53:34.021Z,101519.69
2024-01-11T09:54:39.146Z,101476.34
2024-01-11T09:55:41.962Z,101522.84
2024-01-11T09:56:45.197Z,101519.53
2024-01-11T09:57:57.648Z,101515.16
2024-01-11T09:59:01.194Z,101525.22
2024-01-11T10:00:08.627Z,101523.19
2024-01-11T10:01:13.573Z,101523.25
2024-01-11T10:02:16.841Z,101519.34
2024-01-11T10:03:19.749Z,101514.72
2024-01-11T10:04:22.751Z,101501.16
2024-01-11T10:05:25.532Z,101516.31
2024-01-11T10:06:29.782Z,101515.75
2024-01-11T10:07:34.866Z,101518.59
2024-01-11T10:08:37.736Z,101515.19
2024-01-11T10:09:40.402Z,101497.19
2024-01-11T10:10:43.931Z,101520.56
2024-01-11T10:11:48.022Z,101513.91
2024-01-11T10:12:50.914Z,101516.38
2024-01-11T10:14:00.666Z,101510.25
2024-01-11T10:15:11.296Z,101506.28
2024-01-11T10:16:16.526Z,101505.63
2024-01-11T10:17:22.863Z,101501.47
2024-01-11T10:18:27.272Z,101495.84
2024-01-11T10:19:30.785Z,101487.69
2024-01-11T10:20:34.030Z,101474.88
2024-01-11T10:21:40.429Z,101476.66
2024-01-11T10:22:47.646Z,101474.25
2024-01-11T10:23:51.485Z,101463.59
2024-01-11T10:25:13.394Z,101470.66
2024-01-11T10:26:20.425Z,101468.69
2024-01-11T10:27:28.012Z,101468.81
2024-01-11T10:28:31.438Z,101468.97
2024-01-11T10:29:37.708Z,101450.94
2024-01-11T10:30:42.083Z,101476.94
2024-01-11T10:31:45.035Z,101487.78
2024-01-11T10:32:48.771Z,101494.16
2024-01-11T10:33:52.400Z,101501.06
2024-01-11T10:34:55.509Z,101500.16
2024-01-11T10:35:58.217Z,101494.31
2024-01-11T10:37:01.320Z,101499.56
2024-01-11T10:38:12.915Z,101492.66
2024-01-11T10:39:18.288Z,101490.06
2024-01-11T10:40:25.381Z,101484.97
2024-01-11T10:41:30.460Z,101483.25
2024-01-11T10:42:36.146Z,101486.81
2024-01-11T10:43:39.794Z,101492.09
2024-01-11T10:44:48.064Z,101493.91
2024-01-11T10:45:58.198Z,101486.69
2024-01-11T10:47:04.909Z,101494.28
2024-01-11T10:48:14.320Z,101496.19
2024-01-11T10:49:19.477Z,101485.88
2024-01-11T10:50:25.113Z,101483.38
2024-01-11T10:51:32.576Z,101483.25
2024-01-11T10:52:47.093Z,101478.94
2024-01-11T10:53:52.863Z,101474.56
2024-01-11T10:54:57.160Z,101473.91
2024-01-11T10:56:01.312Z,101469.78
2024-01-11T10:57:06.606Z,101463.81
2024-01-11T10:58:11.745Z,101449.22
2024-01-11T10:59:14.890Z,101467.44
2024-01-11T11:00:19.553Z,101470.13
2024-01-11T11:01:24.427Z,101468.44
2024-01-11T11:02:27.719Z,101457.06
2024-01-11T11:03:32.866Z,101477.69
2024-01-11T11:04:36.994Z,101468.47
2024-01-11T11:05:40.665Z,101470.28
2024-01-11T11:06:44.470Z,101466.09
2024-01-11T11:07:50.844Z,101464.37
2024-01-11T11:08:54.678Z,101462.69
2024-01-11T11:09:58.721Z,101455.75
2024-01-11T11:11:06.051Z,101446.38
2024-01-11T11:12:10.087Z,101441.34
2024-01-11T11:13:16.231Z,101448.22
2024-01-11T11:14:21.007Z,101446.47
2024-01-11T11:15:25.182Z,101447.31
2024-01-11T11:16:28.350Z,101442.31
2024-01-11T11:17:31.717Z,101440.59
2024-01-11T11:18:39.215Z,101431.22
2024-01-11T11:19:42.765Z,101376.88
2024-01-11T11:20:47.153Z,101424.53
2024-01-11T11:21:51.648Z,101414.22
2024-01-11T11:23:06.158Z,101395.16
2024-01-11T11:24:08.928Z,101420.16
2024-01-11T11:25:12.250Z,101413.34
2024-01-11T11:26:21.727Z,101375.34
2024-01-11T11:27:24.693Z,101309.88
2024-01-11T11:28:27.984Z,101414.97
2024-01-11T11:29:30.887Z,101409.03
2024-01-11T11:30:37.622Z,101409.87
2024-01-11T11:31:44.684Z,101415.00
2024-01-11T11:32:47.836Z,101403.13
2024-01-11T11:33:51.500Z,101400.53
2024-01-11T11:34:54.933Z,101389.56
2024-01-11T11:36:01.200Z,101393.06
2024-01-11T11:37:04.491Z,101385.53
2024-01-11T11:38:07.721Z,101387.19
2024-01-11T11:39:14.738Z,101385.91
2024-01-11T11:40:17.996Z,101368.41
2024-01-11T11:41:21.949Z,101395.47
2024-01-11T11:42:25.755Z,101357.44
2024-01-11T11:43:30.150Z,101399.69
2024-01-11T11:44:33.749Z,101398.72
2024-01-11T11:45:38.150Z,101398.91
2024-01-11T11:46:41.081Z,101397.50
2024-01-11T11:47:47.251Z,101400.94
2024-01-11T11:48:52.444Z,101402.84
2024-01-11T11:50:15.209Z,101405.47
2024-01-11T11:51:20.761Z,101397.78
2024-01-11T11:52:24.249Z,101394.31
2024-01-11T11:53:27.073Z,101390.94
2024-01-11T11:54:30.281Z,101389.81
2024-01-11T11:55:35.656Z,101389.00
2024-01-11T11:56:39.064Z,101383.09
2024-01-11T11:57:44.498Z,101383.97
2024-01-11T11:58:48.244Z,101363.19
2024-01-11T11:59:51.928Z,101365.75
2024-01-11T12:00:56.305Z,101361.56
2024-01-11T12:02:00.588Z,101360.34
2024-01-11T12:03:05.197Z,101346.75
2024-01-11T12:04:09.527Z,101334.03
2024-01-11T12:05:12.596Z,101345.94
2024-01-11T12:06:17.584Z,101348.47
2024-01-11T12:07:24.301Z,101342.88
2024-01-11T12:08:27.324Z,101346.47